Terminal Aerodrome Forecast
Issued by NWS Sterling, VA

Current Version | Previous Version | Graphics & Text | Print | Product List | Glossary On
Versions: 1 2 3 4 5 6 7 8 9 10 11 12 13 14 15 16 17 18 19 20 21 22 23 24 25 26
460
FTUS41 KLWX 222059 AAA
TAFDCA
TAF AMD
KDCA 222059Z 2221/2324 12009KT P6SM BKN060 OVC080
     FM230000 13007KT P6SM SCT060 BKN110
     FM230700 VRB03KT P6SM SCT080
     FM231500 12007KT P6SM FEW040
     FM232000 14011G19KT P6SM FEW070 SCT250=

USA.gov is the U.S. government's official web portal to all federal, state and local government web resources and services.